createdAt,value
2023-04-18T00:00:51.999Z,6.83
2023-04-18T00:02:56.849Z,6.53
2023-04-18T00:05:00.378Z,7.20
2023-04-18T00:07:04.814Z,7.73
2023-04-18T00:09:10.058Z,7.27
2023-04-18T00:11:14.854Z,6.80
2023-04-18T00:13:19.279Z,6.27
2023-04-18T00:15:22.342Z,6.53
2023-04-18T00:17:28.104Z,5.70
2023-04-18T00:19:34.243Z,5.90
2023-04-18T00:21:37.990Z,6.00
2023-04-18T00:23:41.739Z,6.13
2023-04-18T00:25:45.324Z,6.20
2023-04-18T00:27:48.955Z,6.20
2023-04-18T00:29:51.821Z,5.37
2023-04-18T00:31:57.256Z,5.30
2023-04-18T00:34:04.634Z,5.00
2023-04-18T00:36:13.249Z,5.07
2023-04-18T00:38:18.868Z,5.57
2023-04-18T00:40:28.958Z,5.37
2023-04-18T00:42:35.006Z,5.37
2023-04-18T00:44:38.470Z,5.53
2023-04-18T00:46:41.486Z,5.00
2023-04-18T00:48:45.728Z,5.60
2023-04-18T00:50:48.908Z,5.40
2023-04-18T00:52:55.009Z,5.40
2023-04-18T00:54:58.123Z,5.60
2023-04-18T00:57:02.404Z,5.93
2023-04-18T00:59:06.658Z,5.57
2023-04-18T01:01:10.879Z,5.20
2023-04-18T01:03:19.848Z,5.27
2023-04-18T01:05:27.195Z,5.80
2023-04-18T01:07:31.845Z,5.10
2023-04-18T01:09:36.982Z,6.10
2023-04-18T01:11:41.230Z,5.20
2023-04-18T01:13:59.844Z,4.73
2023-04-18T01:16:05.692Z,5.47
2023-04-18T01:18:09.903Z,5.20
2023-04-18T01:20:16.799Z,5.60
2023-04-18T01:22:21.259Z,5.67
2023-04-18T01:24:26.797Z,4.77
2023-04-18T01:26:31.595Z,5.17
2023-04-18T01:28:40.062Z,4.70
2023-04-18T01:30:44.779Z,5.40
2023-04-18T01:32:48.365Z,5.00
2023-04-18T01:34:57.163Z,4.53
2023-04-18T01:37:01.136Z,5.07
2023-04-18T01:39:04.830Z,5.10
2023-04-18T01:41:10.366Z,4.80
2023-04-18T01:43:15.208Z,4.90
2023-04-18T01:45:20.749Z,4.87
2023-04-18T01:47:23.926Z,5.63
2023-04-18T01:49:26.888Z,4.80
2023-04-18T01:51:30.360Z,5.10
2023-04-18T01:53:34.105Z,4.60
2023-04-18T01:55:39.234Z,4.03
2023-04-18T01:57:47.529Z,4.97
2023-04-18T01:59:52.625Z,5.00
2023-04-18T02:01:56.574Z,5.10
2023-04-18T02:04:03.826Z,4.70
2023-04-18T02:06:08.734Z,4.63
2023-04-18T02:08:12.337Z,4.20
2023-04-18T02:10:16.907Z,5.17
2023-04-18T02:12:21.092Z,4.80
2023-04-18T02:14:27.390Z,5.47
2023-04-18T02:16:30.501Z,4.80
2023-04-18T02:18:34.669Z,4.90
2023-04-18T02:20:38.035Z,5.00
2023-04-18T02:26:17.569Z,4.03
2023-04-18T02:28:20.571Z,4.37
2023-04-18T02:30:27.525Z,4.60
2023-04-18T02:32:31.202Z,4.80
2023-04-18T02:34:36.192Z,4.80
2023-04-18T02:36:39.714Z,4.10
2023-04-18T02:38:42.572Z,4.40
2023-04-18T02:40:45.701Z,4.80
2023-04-18T02:42:48.715Z,4.50
2023-04-18T02:44:51.558Z,4.20
2023-04-18T02:46:55.881Z,4.40
2023-04-18T02:48:58.921Z,4.20
2023-04-18T02:51:04.390Z,4.47
2023-04-18T02:53:09.560Z,4.47
2023-04-18T02:55:28.412Z,4.27
2023-04-18T02:57:34.423Z,5.03
2023-04-18T03:00:07.896Z,4.70
2023-04-18T03:02:18.841Z,4.70
2023-04-18T03:04:27.578Z,4.83
2023-04-18T03:06:36.439Z,4.47
2023-04-18T03:08:39.366Z,5.33
2023-04-18T03:10:43.468Z,4.80
2023-04-18T03:12:47.643Z,5.33
2023-04-18T03:14:52.732Z,4.70
2023-04-18T03:16:56.665Z,4.70
2023-04-18T03:19:06.221Z,4.70
2023-04-18T03:21:09.813Z,4.13
2023-04-18T03:23:12.982Z,5.17
2023-04-18T03:25:16.112Z,5.23
2023-04-18T03:27:27.111Z,5.40
2023-04-18T03:29:30.112Z,5.10
2023-04-18T03:31:33.656Z,5.57
2023-04-18T03:33:36.874Z,4.93
2023-04-18T03:35:46.478Z,5.40
2023-04-18T03:37:49.441Z,5.40
2023-04-18T03:40:01.336Z,5.60
2023-04-18T03:42:06.046Z,5.60
2023-04-18T03:44:10.489Z,6.00
2023-04-18T03:46:16.229Z,5.10
2023-04-18T03:48:19.450Z,5.73
2023-04-18T03:50:24.672Z,5.60
2023-04-18T03:52:31.370Z,6.70
2023-04-18T03:54:34.235Z,6.20
2023-04-18T03:56:37.270Z,6.60
2023-04-18T03:58:40.321Z,5.97
2023-04-18T04:00:43.296Z,5.50
2023-04-18T04:02:47.322Z,5.63
2023-04-18T04:04:56.175Z,5.87
2023-04-18T04:06:59.520Z,5.77
2023-04-18T04:09:03.982Z,5.90
2023-04-18T04:11:06.996Z,6.23
2023-04-18T04:13:09.911Z,6.50
2023-04-18T04:15:15.535Z,6.17
2023-04-18T04:17:25.415Z,5.93
2023-04-18T04:19:28.917Z,7.10
2023-04-18T04:21:42.874Z,6.87
2023-04-18T04:23:49.075Z,7.23
2023-04-18T04:26:04.647Z,7.17
2023-04-18T04:28:19.262Z,6.80
2023-04-18T04:30:29.878Z,7.00
2023-04-18T04:32:33.258Z,7.30
2023-04-18T04:34:36.828Z,7.93
2023-04-18T04:36:43.863Z,7.40
2023-04-18T04:38:49.180Z,7.10
2023-04-18T04:40:58.160Z,8.30
2023-04-18T04:43:02.344Z,7.70
2023-04-18T04:45:12.478Z,8.10
2023-04-18T04:47:15.424Z,8.90
2023-04-18T04:49:18.534Z,8.20
2023-04-18T04:51:21.400Z,8.10
2023-04-18T04:53:24.722Z,8.80
2023-04-18T04:55:27.720Z,8.10
2023-04-18T04:57:30.779Z,8.50
2023-04-18T04:59:35.595Z,8.93
2023-04-18T05:01:38.673Z,9.03
2023-04-18T05:03:41.829Z,8.80
2023-04-18T05:05:44.840Z,8.30
2023-04-18T05:07:47.691Z,8.50
2023-04-18T05:09:53.125Z,8.37
2023-04-18T05:11:56.031Z,8.30
2023-04-18T05:13:59.696Z,8.40
2023-04-18T05:16:06.007Z,7.67
2023-04-18T05:18:08.948Z,8.90
2023-04-18T05:20:12.417Z,8.37
2023-04-18T05:22:15.270Z,9.00
2023-04-18T05:24:18.134Z,8.00
2023-04-18T05:26:21.089Z,8.47
2023-04-18T05:28:24.816Z,8.23
2023-04-18T05:30:27.713Z,8.27
2023-04-18T05:32:32.338Z,8.00
2023-04-18T05:34:38.678Z,9.10
2023-04-18T05:36:42.159Z,7.53
2023-04-18T05:38:45.034Z,8.40
2023-04-18T05:40:47.877Z,7.57
2023-04-18T05:42:51.238Z,8.80
2023-04-18T05:44:54.130Z,8.17
2023-04-18T05:46:57.272Z,7.67
2023-04-18T05:49:01.546Z,7.70
2023-04-18T05:51:05.868Z,8.00
2023-04-18T05:53:09.008Z,8.60
2023-04-18T05:55:11.966Z,7.93
2023-04-18T05:57:15.163Z,8.10
2023-04-18T05:59:18.226Z,8.47
2023-04-18T06:01:21.510Z,7.80
2023-04-18T06:03:25.049Z,7.77
2023-04-18T06:05:30.405Z,8.40
2023-04-18T06:07:33.579Z,7.60
2023-04-18T06:09:36.561Z,8.40
2023-04-18T06:11:39.366Z,9.80
2023-04-18T06:13:42.552Z,8.30
2023-04-18T06:15:45.551Z,9.53
2023-04-18T06:17:49.258Z,9.33
2023-04-18T06:19:52.149Z,9.27
2023-04-18T06:21:56.396Z,10.20
2023-04-18T06:24:01.398Z,11.20
2023-04-18T06:26:04.296Z,8.77
2023-04-18T06:28:07.193Z,10.17
2023-04-18T06:30:10.717Z,9.63
2023-04-18T06:32:13.566Z,10.70
2023-04-18T06:34:16.560Z,10.50
2023-04-18T06:36:19.655Z,11.07
2023-04-18T06:38:24.152Z,9.60
2023-04-18T06:40:27.104Z,11.10
2023-04-18T06:42:29.989Z,10.47
2023-04-18T06:44:33.222Z,11.30
2023-04-18T06:46:39.184Z,12.63
2023-04-18T06:48:42.256Z,13.67
2023-04-18T06:50:45.657Z,10.13
2023-04-18T06:52:48.560Z,11.07
2023-04-18T06:54:52.808Z,11.83
2023-04-18T06:56:56.039Z,11.97
2023-04-18T06:58:58.913Z,11.67
2023-04-18T07:01:01.897Z,10.13
2023-04-18T07:03:11.422Z,12.00
2023-04-18T07:05:14.948Z,13.10
2023-04-18T07:07:18.348Z,11.53
2023-04-18T07:09:22.570Z,10.73
2023-04-18T07:11:27.150Z,11.30
2023-04-18T07:13:30.094Z,12.20
2023-04-18T07:15:33.030Z,12.00
2023-04-18T07:17:36.030Z,12.47
2023-04-18T07:19:39.430Z,11.57
2023-04-18T07:21:43.821Z,13.07
2023-04-18T07:23:47.619Z,12.67
2023-04-18T07:25:50.611Z,12.33
2023-04-18T07:27:56.004Z,12.13
2023-04-18T07:30:00.589Z,14.07
2023-04-18T07:32:05.181Z,13.07
2023-04-18T07:34:09.153Z,12.43
2023-04-18T07:36:12.167Z,11.17
2023-04-18T07:38:16.641Z,12.00
2023-04-18T07:40:19.770Z,11.83
2023-04-18T07:42:22.921Z,11.80
2023-04-18T07:44:27.784Z,11.53
2023-04-18T07:46:32.403Z,10.80
2023-04-18T07:48:35.368Z,13.00
2023-04-18T07:50:38.584Z,13.80
2023-04-18T07:52:41.520Z,11.20
2023-04-18T07:54:44.356Z,10.67
2023-04-18T07:56:47.873Z,12.37
2023-04-18T07:58:50.751Z,10.47
2023-04-18T08:00:55.010Z,11.13
2023-04-18T08:02:58.017Z,10.80
2023-04-18T08:05:01.293Z,9.90
2023-04-18T08:07:04.368Z,9.53
2023-04-18T08:09:07.425Z,10.80
2023-04-18T08:11:10.769Z,10.73
2023-04-18T08:13:14.107Z,9.93
2023-04-18T08:15:16.982Z,9.97
2023-04-18T08:17:21.245Z,10.33
2023-04-18T08:19:24.307Z,10.13
2023-04-18T08:21:27.474Z,20.83
2023-04-18T08:23:30.348Z,10.20
2023-04-18T08:25:33.507Z,10.80
2023-04-18T08:27:36.587Z,10.80
2023-04-18T08:29:39.685Z,10.83
2023-04-18T08:31:42.580Z,9.90
2023-04-18T08:33:46.914Z,12.63
2023-04-18T08:35:50.256Z,11.73
2023-04-18T08:37:53.305Z,13.60
2023-04-18T08:39:56.187Z,12.97
2023-04-18T08:42:00.467Z,13.40
2023-04-18T08:44:03.592Z,12.63
2023-04-18T08:46:06.685Z,12.03
2023-04-18T08:48:13.154Z,12.60
2023-04-18T08:50:18.447Z,25.00
2023-04-18T08:52:21.791Z,14.00
2023-04-18T08:54:27.248Z,13.17
2023-04-18T08:56:30.340Z,13.87
2023-04-18T08:58:34.915Z,16.50
2023-04-18T09:00:38.560Z,17.43
2023-04-18T09:02:43.688Z,12.60
2023-04-18T09:04:49.422Z,12.80
2023-04-18T09:06:54.227Z,14.00
2023-04-18T09:08:58.879Z,13.07
2023-04-18T09:11:23.963Z,14.97
2023-04-18T09:13:39.623Z,13.37
2023-04-18T09:15:45.612Z,13.37
2023-04-18T09:17:51.015Z,12.40
2023-04-18T09:19:54.542Z,13.20
2023-04-18T09:22:04.535Z,12.53
2023-04-18T09:24:20.922Z,12.63
2023-04-18T09:26:34.601Z,12.73
2023-04-18T09:28:37.543Z,12.27
2023-04-18T09:30:43.063Z,12.67
2023-04-18T09:32:47.366Z,12.20
2023-04-18T09:34:50.281Z,12.80
2023-04-18T09:37:11.465Z,13.27
2023-04-18T09:39:27.891Z,11.70
2023-04-18T09:41:33.674Z,11.93
2023-04-18T09:43:36.607Z,14.37
2023-04-18T09:45:43.443Z,13.43
2023-04-18T09:47:46.583Z,16.70
2023-04-18T09:49:49.766Z,15.13
2023-04-18T09:51:56.227Z,13.57
2023-04-18T09:54:01.651Z,14.17
2023-04-18T09:56:07.413Z,13.37
2023-04-18T09:58:11.471Z,13.20
2023-04-18T10:00:20.260Z,13.13
2023-04-18T10:02:24.084Z,12.17
2023-04-18T10:04:28.439Z,12.40
2023-04-18T10:06:33.418Z,13.03
2023-04-18T10:08:36.302Z,14.63
2023-04-18T10:10:41.467Z,13.20
2023-04-18T10:12:47.822Z,13.40
2023-04-18T10:14:52.394Z,12.40
2023-04-18T10:16:56.205Z,11.60
2023-04-18T10:18:59.689Z,10.63
2023-04-18T10:21:04.105Z,11.57
2023-04-18T10:23:37.215Z,12.53
2023-04-18T10:25:52.311Z,11.80
2023-04-18T10:27:57.966Z,11.47
2023-04-18T10:30:01.431Z,11.80
2023-04-18T10:32:07.555Z,12.73
2023-04-18T10:34:17.414Z,11.97
2023-04-18T10:36:21.779Z,12.57
2023-04-18T10:38:25.161Z,12.37
2023-04-18T10:40:33.517Z,12.13
2023-04-18T10:43:02.895Z,12.60
2023-04-18T10:45:18.799Z,13.40
2023-04-18T10:47:26.041Z,11.73
2023-04-18T10:49:34.210Z,14.30
2023-04-18T10:51:37.147Z,13.40
2023-04-18T10:53:40.050Z,13.97
2023-04-18T10:55:45.062Z,14.43
2023-04-18T10:57:50.485Z,14.13
2023-04-18T10:59:55.144Z,13.83
2023-04-18T11:02:00.695Z,14.50
2023-04-18T11:04:12.528Z,15.37
2023-04-18T11:06:15.912Z,14.50
2023-04-18T11:08:25.239Z,13.60
2023-04-18T11:10:28.378Z,14.60
2023-04-18T11:12:33.222Z,13.20
2023-04-18T11:14:41.889Z,14.17
2023-04-18T11:16:46.145Z,15.93
2023-04-18T11:18:49.048Z,15.27
2023-04-18T11:20:54.356Z,17.40
2023-04-18T11:22:58.358Z,14.50
2023-04-18T11:25:01.801Z,13.70
2023-04-18T11:27:04.974Z,14.80
2023-04-18T11:29:07.870Z,13.27
2023-04-18T11:31:10.839Z,14.80
2023-04-18T11:33:15.817Z,14.30
2023-04-18T11:35:19.438Z,13.33
2023-04-18T11:37:22.958Z,15.13
2023-04-18T11:39:25.916Z,13.50
2023-04-18T11:41:28.994Z,14.50
2023-04-18T11:43:31.867Z,16.07
2023-04-18T11:45:34.950Z,15.50
2023-04-18T11:47:39.903Z,12.93
2023-04-18T11:49:44.255Z,13.83
2023-04-18T11:51:48.169Z,13.50
2023-04-18T11:53:51.204Z,13.57
2023-04-18T11:55:56.022Z,13.63
2023-04-18T11:58:00.517Z,13.93
2023-04-18T12:00:04.040Z,12.57
2023-04-18T12:02:16.661Z,13.90
2023-04-18T12:04:23.572Z,13.30
2023-04-18T12:06:28.188Z,13.40
2023-04-18T12:08:32.983Z,14.17
2023-04-18T12:10:36.969Z,13.77
2023-04-18T12:12:48.894Z,13.17
2023-04-18T12:14:59.779Z,12.90
2023-04-18T12:17:04.598Z,13.37
2023-04-18T12:19:11.312Z,13.20
2023-04-18T12:21:17.127Z,12.10
2023-04-18T12:23:35.548Z,13.13
2023-04-18T12:25:38.910Z,12.77
2023-04-18T12:27:51.755Z,12.03
2023-04-18T12:29:54.703Z,11.97
2023-04-18T12:31:58.007Z,12.77
2023-04-18T12:34:00.943Z,12.13
2023-04-18T12:36:05.306Z,12.77
2023-04-18T12:38:08.415Z,12.70
2023-04-18T12:40:14.064Z,11.83
2023-04-18T12:42:17.479Z,13.80
2023-04-18T12:44:20.872Z,11.23
2023-04-18T12:46:23.750Z,12.70
2023-04-18T12:48:26.692Z,12.00
2023-04-18T12:50:29.578Z,13.23
2023-04-18T12:52:33.003Z,13.33
2023-04-18T12:54:37.989Z,13.13
2023-04-18T12:56:42.419Z,13.20
2023-04-18T12:58:46.005Z,13.07
2023-04-18T13:00:49.008Z,12.20
2023-04-18T13:02:53.601Z,12.35
2023-04-18T13:04:57.191Z,12.13
2023-04-18T13:07:01.065Z,12.65
2023-04-18T13:09:04.511Z,12.52
2023-04-18T13:11:07.902Z,13.03
2023-04-18T13:13:12.315Z,14.13
2023-04-18T13:15:15.838Z,12.15
2023-04-18T13:17:18.727Z,14.65
2023-04-18T13:19:22.335Z,12.55
2023-04-18T13:21:26.355Z,13.48
2023-04-18T13:23:29.415Z,13.38
2023-04-18T13:25:33.055Z,12.75
2023-04-18T13:27:36.306Z,11.52
2023-04-18T13:29:42.311Z,11.13
2023-04-18T13:31:45.300Z,12.07
2023-04-18T13:33:48.323Z,10.60
2023-04-18T13:35:52.593Z,10.80
2023-04-18T13:37:57.033Z,11.25
2023-04-18T13:40:00.392Z,10.52
2023-04-18T13:42:05.105Z,10.73
2023-04-18T13:44:10.511Z,12.70
2023-04-18T13:46:15.120Z,10.57
2023-04-18T13:48:18.050Z,10.98
2023-04-18T13:50:21.280Z,10.70
2023-04-18T13:52:24.213Z,10.95
2023-04-18T13:54:28.025Z,11.27
2023-04-18T13:56:30.931Z,11.65
2023-04-18T13:58:33.933Z,12.15
2023-04-18T14:00:37.193Z,12.65
2023-04-18T14:02:41.994Z,11.88
2023-04-18T14:04:45.077Z,12.90
2023-04-18T14:06:48.868Z,12.50
2023-04-18T14:08:51.964Z,11.50
2023-04-18T14:10:54.839Z,12.73
2023-04-18T14:12:58.190Z,13.10
2023-04-18T14:15:01.214Z,12.77
2023-04-18T14:17:04.109Z,11.43
2023-04-18T14:19:08.322Z,10.63
2023-04-18T14:21:11.909Z,11.88
2023-04-18T14:23:15.002Z,11.93
2023-04-18T14:25:18.969Z,12.20
2023-04-18T14:27:21.872Z,11.63
2023-04-18T14:29:24.740Z,11.68
2023-04-18T14:31:28.187Z,10.70
2023-04-18T14:33:31.138Z,11.13
2023-04-18T14:35:35.393Z,11.63
2023-04-18T14:37:38.581Z,11.77
2023-04-18T14:39:41.445Z,11.82
2023-04-18T14:41:45.832Z,11.90
2023-04-18T14:43:49.201Z,12.05
2023-04-18T14:45:52.151Z,11.68
2023-04-18T14:47:55.776Z,11.90
2023-04-18T14:49:59.060Z,10.75
2023-04-18T14:52:03.350Z,11.15
2023-04-18T14:54:06.696Z,10.20
2023-04-18T14:56:09.676Z,11.05
2023-04-18T14:58:12.533Z,11.07
2023-04-18T15:00:16.092Z,11.55
2023-04-18T15:02:20.199Z,11.35
2023-04-18T15:04:23.657Z,11.77
2023-04-18T15:06:28.464Z,11.55
2023-04-18T15:08:37.152Z,11.15
2023-04-18T15:10:43.140Z,11.63
2023-04-18T15:12:48.504Z,10.45
2023-04-18T15:14:51.497Z,11.52
2023-04-18T15:16:55.643Z,11.32
2023-04-18T15:19:00.406Z,10.50
2023-04-18T15:21:04.986Z,10.70
2023-04-18T15:23:10.844Z,11.55
2023-04-18T15:25:17.124Z,11.15
2023-04-18T15:27:21.286Z,11.27
2023-04-18T15:29:26.326Z,11.40
2023-04-18T15:31:29.932Z,11.38
2023-04-18T15:33:34.339Z,11.13
2023-04-18T15:35:37.245Z,10.02
2023-04-18T15:37:40.912Z,10.48
2023-04-18T15:39:47.211Z,9.95
2023-04-18T15:41:53.417Z,11.00
2023-04-18T15:43:59.403Z,9.65
2023-04-18T15:46:03.580Z,9.63
2023-04-18T15:48:08.269Z,10.70
2023-04-18T15:50:12.398Z,10.55
2023-04-18T15:52:17.904Z,10.70
2023-04-18T15:54:25.135Z,10.10
2023-04-18T15:56:29.705Z,9.55
2023-04-18T15:58:38.149Z,11.43
2023-04-18T16:00:44.549Z,11.00
2023-04-18T16:02:48.001Z,10.65
2023-04-18T16:04:53.235Z,10.98
2023-04-18T16:06:58.205Z,11.50
2023-04-18T16:09:05.432Z,10.48
2023-04-18T16:11:08.995Z,11.55
2023-04-18T16:13:17.277Z,11.00
2023-04-18T16:15:24.335Z,10.48
2023-04-18T16:17:29.551Z,10.00
2023-04-18T16:19:39.333Z,10.60
2023-04-18T16:21:47.185Z,10.20
2023-04-18T16:23:51.748Z,10.43
2023-04-18T16:25:57.671Z,10.75
2023-04-18T16:28:00.960Z,10.23
2023-04-18T16:30:06.695Z,10.90
2023-04-18T16:32:12.360Z,10.20
2023-04-18T16:34:15.733Z,10.85
2023-04-18T16:36:19.901Z,11.00
2023-04-18T16:38:25.485Z,11.75
2023-04-18T16:40:30.686Z,11.57
2023-04-18T16:42:35.735Z,11.55
2023-04-18T16:44:39.342Z,11.25
2023-04-18T16:46:42.840Z,11.20
2023-04-18T16:48:49.043Z,11.35
2023-04-18T16:50:54.237Z,11.18
2023-04-18T16:52:57.262Z,10.70
2023-04-18T16:55:03.285Z,11.38
2023-04-18T16:57:07.318Z,11.03
2023-04-18T16:59:11.130Z,12.17
2023-04-18T17:01:15.574Z,11.73
2023-04-18T17:03:18.790Z,11.47
2023-04-18T17:05:24.008Z,11.67
2023-04-18T17:07:27.043Z,11.33
2023-04-18T17:09:37.324Z,10.63
2023-04-18T17:11:42.348Z,11.13
2023-04-18T17:13:45.689Z,10.83
2023-04-18T17:15:51.877Z,10.90
2023-04-18T17:17:56.591Z,9.67
2023-04-18T17:19:59.970Z,11.00
2023-04-18T17:22:04.774Z,9.60
2023-04-18T17:24:08.584Z,10.50
2023-04-18T17:26:11.575Z,10.67
2023-04-18T17:28:15.181Z,10.30
2023-04-18T17:30:21.524Z,10.60
2023-04-18T17:32:24.671Z,10.90
2023-04-18T17:34:27.843Z,9.77
2023-04-18T17:36:30.863Z,10.50
2023-04-18T17:38:35.182Z,10.93
2023-04-18T17:40:39.281Z,10.43
2023-04-18T17:42:42.695Z,10.63
2023-04-18T17:44:45.751Z,9.80
2023-04-18T17:46:50.428Z,10.27
2023-04-18T17:48:53.745Z,11.17
2023-04-18T17:50:56.609Z,10.50
2023-04-18T17:52:59.739Z,10.53
2023-04-18T17:55:04.336Z,11.23
2023-04-18T17:57:07.356Z,11.03
2023-04-18T17:59:10.891Z,10.00
2023-04-18T18:01:16.748Z,9.30
2023-04-18T18:03:20.674Z,10.90
2023-04-18T18:05:25.978Z,10.43
2023-04-18T18:07:30.975Z,10.33
2023-04-18T18:09:34.624Z,9.53
2023-04-18T18:11:40.010Z,10.70
2023-04-18T18:13:43.111Z,10.87
2023-04-18T18:15:46.220Z,10.73
2023-04-18T18:18:02.986Z,10.77
2023-04-18T18:20:09.769Z,9.83
2023-04-18T18:22:12.744Z,10.43
2023-04-18T18:24:15.641Z,10.10
2023-04-18T18:26:18.520Z,10.77
2023-04-18T18:28:22.843Z,10.67
2023-04-18T18:30:25.743Z,9.90
2023-04-18T18:32:28.633Z,11.10
2023-04-18T18:34:32.110Z,10.03
2023-04-18T18:36:35.035Z,10.20
2023-04-18T18:38:37.969Z,10.97
2023-04-18T18:40:40.851Z,11.07
2023-04-18T18:42:43.719Z,10.30
2023-04-18T18:44:48.181Z,10.20
2023-04-18T18:46:51.173Z,10.00
2023-04-18T18:48:54.163Z,11.00
2023-04-18T18:50:58.272Z,10.60
2023-04-18T18:53:01.774Z,10.43
2023-04-18T18:55:04.992Z,10.90
2023-04-18T18:57:08.431Z,10.07
2023-04-18T18:59:11.402Z,10.10
2023-04-18T19:01:16.087Z,10.63
2023-04-18T19:03:21.204Z,10.70
2023-04-18T19:05:24.866Z,10.87
2023-04-18T19:07:29.875Z,10.40
2023-04-18T19:09:33.279Z,11.23
2023-04-18T19:11:37.183Z,10.90
2023-04-18T19:13:40.310Z,10.33
2023-04-18T19:15:43.315Z,10.90
2023-04-18T19:17:47.686Z,10.03
2023-04-18T19:19:50.623Z,10.00
2023-04-18T19:21:53.833Z,10.40
2023-04-18T19:23:56.889Z,10.80
2023-04-18T19:25:59.733Z,9.97
2023-04-18T19:28:02.583Z,10.07
2023-04-18T19:30:06.178Z,10.50
2023-04-18T19:32:09.143Z,11.67
2023-04-18T19:34:13.701Z,11.27
2023-04-18T19:36:17.028Z,10.63
2023-04-18T19:38:20.068Z,10.17
2023-04-18T19:40:26.674Z,10.30
2023-04-18T19:42:29.494Z,10.60
2023-04-18T19:44:32.985Z,10.30
2023-04-18T19:46:36.266Z,10.47
2023-04-18T19:48:39.267Z,9.97
2023-04-18T19:50:44.744Z,10.53
2023-04-18T19:52:47.904Z,10.83
2023-04-18T19:54:50.874Z,9.93
2023-04-18T19:56:54.068Z,10.20
2023-04-18T19:58:57.947Z,10.20
2023-04-18T20:01:01.226Z,10.20
2023-04-18T20:03:04.389Z,10.23
2023-04-18T20:05:09.293Z,9.67
2023-04-18T20:07:13.857Z,11.17
2023-04-18T20:09:17.477Z,10.50
2023-04-18T20:11:20.836Z,10.90
2023-04-18T20:13:23.712Z,9.70
2023-04-18T20:15:26.620Z,10.33
2023-04-18T20:17:30.528Z,10.30
2023-04-18T20:19:33.587Z,9.80
2023-04-18T20:21:36.586Z,10.00
2023-04-18T20:23:42.552Z,9.70
2023-04-18T20:25:45.911Z,10.10
2023-04-18T20:27:49.215Z,10.60
2023-04-18T20:29:52.653Z,10.33
2023-04-18T20:31:55.858Z,10.40
2023-04-18T20:33:59.927Z,10.17
2023-04-18T20:36:03.881Z,10.23
2023-04-18T20:38:11.223Z,10.73
2023-04-18T20:40:16.679Z,9.13
2023-04-18T20:42:19.753Z,9.83
2023-04-18T20:44:24.854Z,10.70
2023-04-18T20:46:28.001Z,11.93
2023-04-18T20:48:30.968Z,11.13
2023-04-18T20:50:33.939Z,11.10
2023-04-18T20:52:36.782Z,10.83
2023-04-18T20:54:39.661Z,11.37
2023-04-18T20:56:44.092Z,10.97
2023-04-18T20:58:47.080Z,10.63
2023-04-18T21:00:50.436Z,10.40
2023-04-18T21:02:53.519Z,10.40
2023-04-18T21:04:56.497Z,10.63
2023-04-18T21:07:01.308Z,9.70
2023-04-18T21:09:04.386Z,9.30
2023-04-18T21:11:07.283Z,9.93
2023-04-18T21:13:12.663Z,10.30
2023-04-18T21:15:16.196Z,10.33
2023-04-18T21:17:19.148Z,11.37
2023-04-18T21:19:22.092Z,10.43
2023-04-18T21:21:25.616Z,10.10
2023-04-18T21:23:28.607Z,11.50
2023-04-18T21:25:31.485Z,10.83
2023-04-18T21:27:34.448Z,10.50
2023-04-18T21:29:38.680Z,10.63
2023-04-18T21:31:41.602Z,10.00
2023-04-18T21:33:44.872Z,10.70
2023-04-18T21:35:47.772Z,10.87
2023-04-18T21:37:51.041Z,9.53
2023-04-18T21:39:53.885Z,10.93
2023-04-18T21:41:58.247Z,10.00
2023-04-18T21:44:01.383Z,11.10
2023-04-18T21:46:06.142Z,10.03
2023-04-18T21:48:10.662Z,11.20
2023-04-18T21:50:13.603Z,11.13
2023-04-18T21:52:16.925Z,10.17
2023-04-18T21:54:19.773Z,9.80
2023-04-18T21:56:22.694Z,10.67
2023-04-18T21:58:25.735Z,10.07
2023-04-18T22:00:28.852Z,10.50
2023-04-18T22:02:33.316Z,9.80
2023-04-18T22:04:37.977Z,10.80
2023-04-18T22:06:41.875Z,9.67
2023-04-18T22:08:45.332Z,10.80
2023-04-18T22:10:51.292Z,10.63
2023-04-18T22:12:54.611Z,10.77
2023-04-18T22:14:58.584Z,9.57
2023-04-18T22:17:03.300Z,9.80
2023-04-18T22:19:09.095Z,10.77
2023-04-18T22:21:14.384Z,10.80
2023-04-18T22:23:22.453Z,10.63
2023-04-18T22:25:25.495Z,10.23
2023-04-18T22:27:28.466Z,10.17
2023-04-18T22:29:31.359Z,11.67
2023-04-18T22:31:34.218Z,10.70
2023-04-18T22:33:37.321Z,9.87
2023-04-18T22:35:41.822Z,10.77
2023-04-18T22:37:44.676Z,10.50
2023-04-18T22:39:47.539Z,11.37
2023-04-18T22:41:50.506Z,11.23
2023-04-18T22:43:54.692Z,10.63
2023-04-18T22:45:57.648Z,11.67
2023-04-18T22:48:01.022Z,11.07
2023-04-18T22:50:04.038Z,10.97
2023-04-18T22:52:08.382Z,10.67
2023-04-18T22:54:11.268Z,10.73
2023-04-18T22:56:14.136Z,10.60
2023-04-18T22:58:17.283Z,11.53
2023-04-18T23:00:20.845Z,11.10
2023-04-18T23:02:23.801Z,11.50
2023-04-18T23:04:31.548Z,12.53
2023-04-18T23:06:39.811Z,11.37
2023-04-18T23:08:44.119Z,11.80
2023-04-18T23:10:47.005Z,11.40
2023-04-18T23:12:49.876Z,11.90
2023-04-18T23:14:52.795Z,11.87
2023-04-18T23:16:55.717Z,12.20
2023-04-18T23:18:58.641Z,12.33
2023-04-18T23:21:02.204Z,11.50
2023-04-18T23:23:05.019Z,12.80
2023-04-18T23:25:10.828Z,13.10
2023-04-18T23:27:14.077Z,12.00
2023-04-18T23:29:16.958Z,12.90
2023-04-18T23:31:20.210Z,14.43
2023-04-18T23:33:23.277Z,14.90
2023-04-18T23:35:26.123Z,13.20
2023-04-18T23:37:29.814Z,14.17
2023-04-18T23:39:32.967Z,12.43
2023-04-18T23:41:37.234Z,14.03
2023-04-18T23:43:40.108Z,14.20
2023-04-18T23:45:43.099Z,14.10
2023-04-18T23:47:46.231Z,13.03
2023-04-18T23:49:49.125Z,14.73
2023-04-18T23:51:52.106Z,14.70
2023-04-18T23:53:55.178Z,14.20
2023-04-18T23:55:58.093Z,13.30
2023-04-18T23:58:02.778Z,13.93
